createdAt,value
2018-12-15T00:00:26.092Z,-1.40
2018-12-15T00:02:56.128Z,-1.40
2018-12-15T00:05:30.882Z,-1.40
2018-12-15T00:08:02.761Z,-1.40
2018-12-15T00:10:37.301Z,-1.40
2018-12-15T00:13:09.096Z,-1.40
2018-12-15T00:15:43.801Z,-1.40
2018-12-15T00:18:15.157Z,-1.40
2018-12-15T00:23:33.376Z,-1.40
2018-12-15T00:26:12.053Z,-1.40
2018-12-15T00:28:46.347Z,-1.40
2018-12-15T00:31:18.289Z,-1.40
2018-12-15T00:33:48.744Z,-1.40
2018-12-15T00:36:20.815Z,-1.40
2018-12-15T00:38:56.004Z,-1.40
2018-12-15T00:41:27.488Z,-1.40
2018-12-15T00:44:01.170Z,-1.40
2018-12-15T00:46:32.604Z,-1.40
2018-12-15T00:49:09.311Z,-1.40
2018-12-15T00:51:41.006Z,-1.40
2018-12-15T00:54:09.477Z,-1.40
2018-12-15T00:56:43.782Z,-1.40
2018-12-15T00:59:15.081Z,-1.40
2018-12-15T01:01:47.131Z,-1.40
2018-12-15T01:04:17.268Z,-1.40
2018-12-15T01:06:47.522Z,-1.40
2018-12-15T01:09:19.480Z,-1.40
2018-12-15T01:11:54.250Z,-1.50
2018-12-15T01:14:25.760Z,-1.50
2018-12-15T01:16:57.746Z,-1.50
2018-12-15T01:19:37.832Z,-1.50
2018-12-15T01:22:09.048Z,-1.50
2018-12-15T01:24:40.485Z,-1.50
2018-12-15T01:27:18.160Z,-1.50
2018-12-15T01:29:50.041Z,-1.50
2018-12-15T01:32:20.021Z,-1.50
2018-12-15T01:34:49.309Z,-1.50
2018-12-15T01:37:21.233Z,-1.70
2018-12-15T01:39:52.587Z,-1.50
2018-12-15T01:42:24.416Z,-1.50
2018-12-15T01:45:02.276Z,-1.50
2018-12-15T01:47:42.548Z,-1.50
2018-12-15T01:50:19.388Z,-1.50
2018-12-15T01:52:53.092Z,-1.50
2018-12-15T01:55:24.630Z,-1.50
2018-12-15T01:57:56.905Z,-1.50
2018-12-15T02:00:35.367Z,-1.50
2018-12-15T02:03:13.951Z,-1.50
2018-12-15T02:05:46.117Z,-1.50
2018-12-15T02:08:17.448Z,-1.50
2018-12-15T02:10:48.665Z,-1.50
2018-12-15T02:16:16.125Z,-1.50
2018-12-15T02:18:49.835Z,-1.50
2018-12-15T02:21:21.546Z,-1.50
2018-12-15T02:23:56.190Z,-1.60
2018-12-15T02:26:30.063Z,-1.60
2018-12-15T02:29:04.659Z,-1.50
2018-12-15T02:31:38.624Z,-1.60
2018-12-15T02:34:10.165Z,-1.60
2018-12-15T02:36:39.495Z,-1.60
2018-12-15T02:39:13.680Z,-1.60
2018-12-15T02:41:47.244Z,-1.60
2018-12-15T02:44:20.940Z,-1.60
2018-12-15T02:46:52.154Z,-1.60
2018-12-15T02:49:27.792Z,-1.60
2018-12-15T02:51:59.548Z,-1.60
2018-12-15T02:54:31.380Z,-1.60
2018-12-15T02:57:07.824Z,-1.60
2018-12-15T02:59:41.913Z,-1.60
2018-12-15T03:02:16.098Z,-1.60
2018-12-15T03:04:50.253Z,-1.60
2018-12-15T03:07:24.947Z,-1.60
2018-12-15T03:09:56.575Z,-1.60
2018-12-15T03:12:28.713Z,-1.60
2018-12-15T03:15:03.310Z,-1.60
2018-12-15T03:17:37.414Z,-1.60
2018-12-15T03:20:09.528Z,-1.60
2018-12-15T03:22:44.762Z,-1.70
2018-12-15T03:25:31.992Z,-1.70
2018-12-15T03:31:00.641Z,-1.60
2018-12-15T03:36:25.420Z,-1.70
2018-12-15T03:38:59.104Z,-1.60
2018-12-15T03:41:31.326Z,-1.70
2018-12-15T03:44:03.024Z,-1.70
2018-12-15T03:46:32.733Z,-1.60
2018-12-15T03:49:08.459Z,-1.60
2018-12-15T03:51:40.156Z,-1.70
2018-12-15T03:54:12.223Z,-1.70
2018-12-15T03:56:46.803Z,-1.70
2018-12-15T03:59:19.067Z,-1.70
2018-12-15T04:01:50.507Z,-1.70
2018-12-15T04:04:25.504Z,-1.70
2018-12-15T04:06:59.503Z,-1.70
2018-12-15T04:09:30.856Z,-1.70
2018-12-15T04:12:00.898Z,-1.70
2018-12-15T04:14:31.045Z,-1.70
2018-12-15T04:17:02.684Z,-1.70
2018-12-15T04:19:34.742Z,-1.70
2018-12-15T04:22:18.242Z,-1.70
2018-12-15T04:24:50.079Z,-1.70
2018-12-15T04:27:22.307Z,-1.70
2018-12-15T04:29:54.300Z,-1.70
2018-12-15T04:32:26.170Z,-1.70
2018-12-15T04:34:55.525Z,-1.80
2018-12-15T04:37:29.980Z,-1.70
2018-12-15T04:40:01.400Z,-1.70
2018-12-15T04:42:33.584Z,-1.70
2018-12-15T04:45:10.135Z,-1.70
2018-12-15T04:47:42.275Z,-1.70
2018-12-15T04:50:16.845Z,-1.70
2018-12-15T04:52:48.533Z,-1.70
2018-12-15T04:55:28.642Z,-1.70
2018-12-15T04:58:00.544Z,-1.70
2018-12-15T05:00:34.759Z,-1.70
2018-12-15T05:03:06.565Z,-1.70
2018-12-15T05:05:38.525Z,-1.80
2018-12-15T05:08:10.621Z,-1.70
2018-12-15T05:10:40.739Z,-1.70
2018-12-15T05:13:21.775Z,-1.80
2018-12-15T05:16:04.422Z,-1.70
2018-12-15T05:18:42.692Z,-1.70
2018-12-15T05:21:17.390Z,-1.70
2018-12-15T05:26:48.640Z,-1.70
2018-12-15T05:29:18.369Z,-1.70
2018-12-15T05:34:41.202Z,-1.70
2018-12-15T05:37:15.732Z,-1.70
2018-12-15T05:39:45.441Z,-1.70
2018-12-15T05:42:16.781Z,-1.70
2018-12-15T05:44:48.986Z,-1.70
2018-12-15T05:47:21.242Z,-1.70
2018-12-15T05:49:50.785Z,-1.70
2018-12-15T05:52:25.310Z,-1.80
2018-12-15T05:54:57.429Z,-1.70
2018-12-15T05:57:27.432Z,-1.70
2018-12-15T05:59:57.080Z,-1.70
2018-12-15T06:02:29.388Z,-1.70
2018-12-15T06:05:01.673Z,-1.70
2018-12-15T06:07:33.281Z,-1.70
2018-12-15T06:10:19.979Z,-1.80
2018-12-15T06:12:51.784Z,-1.80
2018-12-15T06:15:23.848Z,-1.80
2018-12-15T06:17:53.753Z,-1.80
2018-12-15T06:20:33.820Z,-1.80
2018-12-15T06:23:09.709Z,-1.80
2018-12-15T06:25:44.206Z,-1.70
2018-12-15T06:28:18.198Z,-1.70
2018-12-15T06:30:56.233Z,-1.70
2018-12-15T06:33:30.280Z,-1.70
2018-12-15T06:36:04.467Z,-1.70
2018-12-15T06:38:47.078Z,-1.70
2018-12-15T06:41:18.472Z,-1.80
2018-12-15T06:43:50.269Z,-1.70
2018-12-15T06:46:24.952Z,-1.70
2018-12-15T06:48:57.124Z,-1.70
2018-12-15T06:51:29.216Z,-1.70
2018-12-15T06:54:05.506Z,-1.70
2018-12-15T06:56:39.667Z,-1.70
2018-12-15T06:59:11.421Z,-1.80
2018-12-15T07:01:41.804Z,-1.70
2018-12-15T07:04:16.398Z,-1.70
2018-12-15T07:06:52.430Z,-1.70
2018-12-15T07:09:23.987Z,-1.80
2018-12-15T07:11:54.591Z,-1.70
2018-12-15T07:14:31.072Z,-1.70
2018-12-15T07:17:05.131Z,-1.70
2018-12-15T07:19:34.755Z,-1.70
2018-12-15T07:22:15.674Z,-1.70
2018-12-15T07:24:51.079Z,-1.70
2018-12-15T07:27:20.785Z,-1.70
2018-12-15T07:30:01.391Z,-1.60
2018-12-15T07:32:31.544Z,-1.60
2018-12-15T07:35:05.551Z,-1.60
2018-12-15T07:40:36.141Z,-1.60
2018-12-15T07:43:14.803Z,-1.60
2018-12-15T07:45:46.691Z,-1.60
2018-12-15T07:51:18.318Z,-1.60
2018-12-15T07:53:49.650Z,-1.50
2018-12-15T07:56:32.065Z,-1.50
2018-12-15T08:02:03.014Z,-1.50
2018-12-15T08:04:34.740Z,-1.50
2018-12-15T08:07:06.241Z,-1.40
2018-12-15T08:09:38.311Z,-1.40
2018-12-15T08:12:52.933Z,-1.50
2018-12-15T08:15:27.129Z,-1.40
2018-12-15T08:20:56.863Z,-1.40
2018-12-15T08:26:26.143Z,-1.30
2018-12-15T08:28:56.344Z,-1.30
2018-12-15T08:31:38.159Z,-1.30
2018-12-15T08:34:14.467Z,-1.30
2018-12-15T08:36:50.552Z,-1.20
2018-12-15T08:39:22.004Z,-1.20
2018-12-15T08:41:54.301Z,-1.20
2018-12-15T08:44:28.665Z,-1.20
2018-12-15T08:50:01.496Z,-1.10
2018-12-15T08:52:33.025Z,-1.10
2018-12-15T08:55:07.583Z,-1.00
2018-12-15T08:57:41.448Z,-1.00
2018-12-15T09:00:19.244Z,-1.10
2018-12-15T09:02:51.024Z,-1.00
2018-12-15T09:05:29.120Z,-1.00
2018-12-15T09:08:00.752Z,-1.00
2018-12-15T09:10:33.029Z,-1.00
2018-12-15T09:13:11.358Z,-0.90
2018-12-15T09:15:49.846Z,-0.90
2018-12-15T09:18:21.400Z,-0.90
2018-12-15T09:20:51.797Z,-0.90
2018-12-15T09:26:28.982Z,-0.90
2018-12-15T09:29:05.242Z,-0.80
2018-12-15T09:31:39.288Z,-0.80
2018-12-15T09:34:15.646Z,-0.80
2018-12-15T09:36:54.097Z,-0.70
2018-12-15T09:39:26.303Z,-0.60
2018-12-15T09:42:01.659Z,-0.60
2018-12-15T09:44:33.164Z,-0.60
2018-12-15T09:47:07.594Z,-0.60
2018-12-15T09:49:41.459Z,-0.50
2018-12-15T09:52:16.540Z,-0.50
2018-12-15T09:54:50.460Z,-0.40
2018-12-15T09:57:21.790Z,-0.40
2018-12-15T09:59:53.938Z,-0.40
2018-12-15T10:02:25.894Z,-0.40
2018-12-15T10:05:00.338Z,-0.40
2018-12-15T10:07:31.557Z,-0.30
2018-12-15T10:10:00.771Z,-0.30
2018-12-15T10:12:35.286Z,-0.30
2018-12-15T10:15:09.656Z,-0.20
2018-12-15T10:17:47.844Z,-0.40
2018-12-15T10:20:17.647Z,-0.30
2018-12-15T10:22:49.168Z,-0.30
2018-12-15T10:25:23.488Z,-0.30
2018-12-15T10:27:59.673Z,-0.30
2018-12-15T10:30:36.849Z,-0.30
2018-12-15T10:33:19.838Z,-0.10
2018-12-15T10:35:51.859Z,-0.10
2018-12-15T10:38:28.302Z,-0.10
2018-12-15T10:41:04.838Z,-0.10
2018-12-15T10:43:36.356Z,0.00
2018-12-15T10:46:15.161Z,0.00
2018-12-15T10:48:49.047Z,0.00
2018-12-15T10:51:23.080Z,0.00
2018-12-15T10:53:57.199Z,0.10
2018-12-15T10:56:28.996Z,0.20
2018-12-15T10:59:02.663Z,0.10
2018-12-15T11:01:34.834Z,0.00
2018-12-15T11:04:06.702Z,0.10
2018-12-15T11:06:48.434Z,0.00
2018-12-15T11:09:23.123Z,0.00
2018-12-15T11:11:54.578Z,0.00
2018-12-15T11:14:32.332Z,0.00
2018-12-15T11:17:10.232Z,0.00
2018-12-15T11:19:50.840Z,0.00
2018-12-15T11:22:22.192Z,0.00
2018-12-15T11:24:58.773Z,0.00
2018-12-15T11:27:30.376Z,0.00
2018-12-15T11:30:02.380Z,0.00
2018-12-15T11:32:36.100Z,0.10
2018-12-15T11:35:08.012Z,0.00
2018-12-15T11:37:42.484Z,0.10
2018-12-15T11:40:18.733Z,0.10
2018-12-15T11:42:53.230Z,0.20
2018-12-15T11:45:27.252Z,0.10
2018-12-15T11:48:01.443Z,0.20
2018-12-15T11:50:36.526Z,0.20
2018-12-15T11:53:26.838Z,0.10
2018-12-15T11:55:58.761Z,0.10
2018-12-15T11:58:36.432Z,0.00
2018-12-15T12:01:10.668Z,0.00
2018-12-15T12:03:51.437Z,0.00
2018-12-15T12:06:25.917Z,-0.10
2018-12-15T12:08:57.677Z,-0.10
2018-12-15T12:11:26.981Z,-0.10
2018-12-15T12:14:00.319Z,-0.10
2018-12-15T12:16:28.272Z,-0.10
2018-12-15T12:24:45.677Z,-0.10
2018-12-15T12:27:23.493Z,-0.10
2018-12-15T12:29:54.884Z,-0.10
2018-12-15T12:32:29.433Z,-0.20
2018-12-15T12:35:03.808Z,-0.20
2018-12-15T12:37:32.100Z,-0.20
2018-12-15T12:40:04.468Z,-0.10
2018-12-15T12:42:36.684Z,-0.10
2018-12-15T12:48:02.836Z,-0.10
2018-12-15T12:50:39.230Z,-0.10
2018-12-15T12:56:16.216Z,-0.10
2018-12-15T12:58:54.396Z,-0.20
2018-12-15T13:01:28.276Z,-0.20
2018-12-15T13:04:02.260Z,-0.20
2018-12-15T13:06:30.512Z,-0.20
2018-12-15T13:09:05.820Z,-0.20
2018-12-15T13:11:37.699Z,-0.20
2018-12-15T13:17:08.704Z,-0.20
2018-12-15T13:19:38.339Z,-0.20
2018-12-15T13:22:19.713Z,-0.10
2018-12-15T13:24:52.055Z,-0.10
2018-12-15T13:27:36.562Z,-0.10
2018-12-15T13:30:11.050Z,-0.10
2018-12-15T13:32:49.238Z,-0.20
2018-12-15T13:35:20.529Z,-0.10
2018-12-15T13:37:58.440Z,-0.20
2018-12-15T13:40:30.119Z,-0.20
2018-12-15T13:42:58.364Z,-0.20
2018-12-15T13:45:34.005Z,-0.20
2018-12-15T13:48:08.265Z,-0.20
2018-12-15T13:50:48.924Z,-0.20
2018-12-15T13:53:18.205Z,-0.20
2018-12-15T13:55:48.148Z,-0.30
2018-12-15T13:58:26.766Z,-0.30
2018-12-15T14:00:58.595Z,-0.40
2018-12-15T14:03:39.581Z,-0.40
2018-12-15T14:06:11.829Z,-0.50
2018-12-15T14:08:48.068Z,-0.60
2018-12-15T14:11:28.310Z,-0.60
2018-12-15T14:14:02.676Z,-0.60
2018-12-15T14:16:41.221Z,-0.60
2018-12-15T14:19:15.324Z,-0.70
2018-12-15T14:21:46.901Z,-0.70
2018-12-15T14:24:21.346Z,-0.70
2018-12-15T14:26:53.054Z,-0.70
2018-12-15T14:29:27.091Z,-0.70
2018-12-15T14:31:58.559Z,-0.80
2018-12-15T14:34:35.145Z,-0.80
2018-12-15T14:37:13.445Z,-0.80
2018-12-15T14:39:46.345Z,-0.80
2018-12-15T14:42:15.728Z,-0.80
2018-12-15T14:44:47.394Z,-0.90
2018-12-15T14:47:21.736Z,-1.00
2018-12-15T14:49:55.934Z,-0.90
2018-12-15T14:52:25.654Z,-0.90
2018-12-15T14:54:57.692Z,-0.90
2018-12-15T14:57:28.980Z,-1.00
2018-12-15T15:00:00.897Z,-1.10
2018-12-15T15:02:34.633Z,-1.10
2018-12-15T15:05:08.874Z,-1.20
2018-12-15T15:07:42.922Z,-1.10
2018-12-15T15:10:14.905Z,-1.20
2018-12-15T15:12:53.372Z,-1.10
2018-12-15T15:15:27.692Z,-1.20
2018-12-15T15:18:01.760Z,-1.20
2018-12-15T15:20:33.516Z,-1.20
2018-12-15T15:23:05.870Z,-1.20
2018-12-15T15:25:40.640Z,-1.20
2018-12-15T15:28:14.542Z,-1.20
2018-12-15T15:30:46.395Z,-1.20
2018-12-15T15:33:20.990Z,-1.20
2018-12-15T15:35:59.113Z,-1.20
2018-12-15T15:38:33.289Z,-1.30
2018-12-15T15:41:07.578Z,-1.30
2018-12-15T15:46:11.292Z,-1.30
2018-12-15T15:48:41.236Z,-1.40
2018-12-15T15:51:15.678Z,-1.30
2018-12-15T15:53:45.254Z,-1.30
2018-12-15T15:56:21.115Z,-1.30
2018-12-15T15:58:55.045Z,-1.30
2018-12-15T16:01:33.145Z,-1.30
2018-12-15T16:04:04.688Z,-1.30
2018-12-15T16:06:38.604Z,-1.30
2018-12-15T16:09:14.661Z,-1.30
2018-12-15T16:11:44.612Z,-1.30
2018-12-15T16:14:20.933Z,-1.30
2018-12-15T16:16:55.013Z,-1.40
2018-12-15T16:19:32.908Z,-1.40
2018-12-15T16:22:02.673Z,-1.40
2018-12-15T16:24:32.868Z,-1.40
2018-12-15T16:27:05.121Z,-1.40
2018-12-15T16:29:36.859Z,-1.30
2018-12-15T16:32:11.013Z,-1.40
2018-12-15T16:34:45.086Z,-1.40
2018-12-15T16:37:17.024Z,-1.30
2018-12-15T16:39:49.221Z,-1.30
2018-12-15T16:42:21.548Z,-1.40
2018-12-15T16:44:53.549Z,-1.40
2018-12-15T16:50:18.494Z,-1.40
2018-12-15T16:52:53.345Z,-1.40
2018-12-15T16:55:24.720Z,-1.40
2018-12-15T16:57:59.248Z,-1.50
2018-12-15T17:00:30.885Z,-1.50
2018-12-15T17:03:11.823Z,-1.50
2018-12-15T17:05:52.584Z,-1.50
2018-12-15T17:08:27.109Z,-1.50
2018-12-15T17:10:59.100Z,-1.50
2018-12-15T17:13:31.382Z,-1.60
2018-12-15T17:16:05.988Z,-1.50
2018-12-15T17:18:42.356Z,-1.50
2018-12-15T17:21:13.710Z,-1.50
2018-12-15T17:23:46.144Z,-1.50
2018-12-15T17:26:33.022Z,-1.50
2018-12-15T17:31:59.644Z,-1.50
2018-12-15T17:34:35.821Z,-1.50
2018-12-15T17:37:20.796Z,-1.60
2018-12-15T17:39:53.120Z,-1.60
2018-12-15T17:42:27.756Z,-1.70
2018-12-15T17:45:02.504Z,-1.60
2018-12-15T17:47:37.768Z,-1.60
2018-12-15T17:50:09.444Z,-1.60
2018-12-15T17:52:43.979Z,-1.60
2018-12-15T17:55:14.080Z,-1.60
2018-12-15T17:57:47.977Z,-1.60
2018-12-15T18:00:25.901Z,-1.60
2018-12-15T18:03:01.920Z,-1.70
2018-12-15T18:05:33.406Z,-1.70
2018-12-15T18:08:23.080Z,-1.60
2018-12-15T18:10:55.115Z,-1.60
2018-12-15T18:13:26.418Z,-1.70
2018-12-15T18:15:56.641Z,-1.60
2018-12-15T18:18:28.609Z,-1.60
2018-12-15T18:21:02.702Z,-1.60
2018-12-15T18:23:34.248Z,-1.60
2018-12-15T18:26:07.940Z,-1.60
2018-12-15T18:28:37.607Z,-1.60
2018-12-15T18:31:10.199Z,-1.60
2018-12-15T18:36:57.810Z,-1.60
2018-12-15T18:39:27.837Z,-1.60
2018-12-15T18:42:02.349Z,-1.60
2018-12-15T18:44:35.032Z,-1.70
2018-12-15T18:47:08.676Z,-1.60
2018-12-15T18:49:49.281Z,-1.70
2018-12-15T18:52:21.371Z,-1.70
2018-12-15T18:55:04.351Z,-1.70
2018-12-15T18:57:35.718Z,-1.70
2018-12-15T19:00:09.375Z,-1.80
2018-12-15T19:02:41.256Z,-1.80
2018-12-15T19:05:13.075Z,-1.80
2018-12-15T19:07:53.967Z,-1.80
2018-12-15T19:10:28.600Z,-1.80
2018-12-15T19:13:00.360Z,-1.80
2018-12-15T19:15:30.459Z,-1.80
2018-12-15T19:18:01.211Z,-1.70
2018-12-15T19:20:33.101Z,-1.80
2018-12-15T19:23:06.300Z,-1.80
2018-12-15T19:25:38.593Z,-1.90
2018-12-15T19:28:10.748Z,-2.00
2018-12-15T19:30:42.413Z,-1.90
2018-12-15T19:33:12.765Z,-1.90
2018-12-15T19:35:48.234Z,-1.90
2018-12-15T19:38:19.909Z,-1.90
2018-12-15T19:40:51.297Z,-1.90
2018-12-15T19:43:25.818Z,-2.00
2018-12-15T19:45:57.309Z,-1.90
2018-12-15T19:48:29.494Z,-1.90
2018-12-15T19:51:01.361Z,-1.90
2018-12-15T19:53:36.077Z,-2.00
2018-12-15T19:56:08.493Z,-2.00
2018-12-15T19:58:42.591Z,-2.00
2018-12-15T20:01:16.576Z,-2.00
2018-12-15T20:03:45.727Z,-2.00
2018-12-15T20:06:18.364Z,-2.00
2018-12-15T20:11:36.135Z,-2.00
2018-12-15T20:14:06.443Z,-2.10
2018-12-15T20:16:39.159Z,-2.00
2018-12-15T20:19:10.770Z,-2.00
2018-12-15T20:21:43.008Z,-2.00
2018-12-15T20:24:25.694Z,-2.00
2018-12-15T20:26:57.640Z,-2.10
2018-12-15T20:29:28.913Z,-2.10
2018-12-15T20:32:00.177Z,-2.10
2018-12-15T20:34:40.769Z,-2.10
2018-12-15T20:37:12.062Z,-2.10
2018-12-15T20:39:53.189Z,-2.20
2018-12-15T20:42:22.381Z,-2.20
2018-12-15T20:44:54.144Z,-2.20
2018-12-15T20:47:28.084Z,-2.20
2018-12-15T20:50:01.355Z,-2.20
2018-12-15T20:52:35.405Z,-2.20
2018-12-15T20:55:07.466Z,-2.30
2018-12-15T20:57:38.221Z,-2.20
2018-12-15T21:00:10.272Z,-2.20
2018-12-15T21:02:41.721Z,-2.20
2018-12-15T21:05:13.733Z,-2.20
2018-12-15T21:07:52.172Z,-2.20
2018-12-15T21:10:26.476Z,-2.20
2018-12-15T21:13:00.455Z,-2.20
2018-12-15T21:15:40.625Z,-2.20
2018-12-15T21:18:14.841Z,-2.20
2018-12-15T21:20:55.015Z,-2.20
2018-12-15T21:23:29.349Z,-2.20
2018-12-15T21:26:01.074Z,-2.20
2018-12-15T21:28:31.074Z,-2.20
2018-12-15T21:31:03.213Z,-2.20
2018-12-15T21:33:35.104Z,-2.20
2018-12-15T21:36:06.577Z,-2.30
2018-12-15T21:38:36.712Z,-2.20
2018-12-15T21:41:08.824Z,-2.20
2018-12-15T21:43:43.210Z,-2.30
2018-12-15T21:46:17.289Z,-2.30
2018-12-15T21:48:49.874Z,-2.30
2018-12-15T21:51:20.057Z,-2.30
2018-12-15T21:54:08.339Z,-2.30
2018-12-15T21:56:39.644Z,-2.30
2018-12-15T21:59:13.795Z,-2.30
2018-12-15T22:01:45.268Z,-2.40
2018-12-15T22:04:20.178Z,-2.40
2018-12-15T22:06:50.197Z,-2.40
2018-12-15T22:09:22.340Z,-2.50
2018-12-15T22:11:56.802Z,-2.50
2018-12-15T22:14:38.587Z,-2.50
2018-12-15T22:17:15.100Z,-2.50
2018-12-15T22:19:53.043Z,-2.60
2018-12-15T22:22:30.948Z,-2.60
2018-12-15T22:25:02.208Z,-2.60
2018-12-15T22:27:34.541Z,-2.60
2018-12-15T22:30:07.353Z,-2.70
2018-12-15T22:32:41.643Z,-2.80
2018-12-15T22:35:10.992Z,-2.90
2018-12-15T22:37:51.776Z,-3.00
2018-12-15T22:40:21.733Z,-3.10
2018-12-15T22:42:53.860Z,-3.30
2018-12-15T22:45:28.443Z,-3.40
2018-12-15T22:48:08.585Z,-3.50
2018-12-15T22:50:40.913Z,-3.60
2018-12-15T22:53:19.342Z,-3.70
2018-12-15T22:55:48.775Z,-3.80
2018-12-15T22:58:20.090Z,-4.00
2018-12-15T23:00:54.799Z,-4.00
2018-12-15T23:03:29.200Z,-4.10
2018-12-15T23:06:07.380Z,-4.10
2018-12-15T23:08:38.992Z,-4.20
2018-12-15T23:11:09.049Z,-4.40
2018-12-15T23:13:47.503Z,-4.40
2018-12-15T23:16:17.087Z,-4.50
2018-12-15T23:18:49.213Z,-4.70
2018-12-15T23:21:21.124Z,-4.70
2018-12-15T23:23:53.134Z,-4.70
2018-12-15T23:26:25.204Z,-4.70
2018-12-15T23:28:57.870Z,-4.80
2018-12-15T23:31:32.038Z,-4.90
2018-12-15T23:34:03.693Z,-4.90
2018-12-15T23:36:35.740Z,-4.90
2018-12-15T23:39:09.126Z,-5.00
2018-12-15T23:41:41.980Z,-5.00
2018-12-15T23:44:14.588Z,-5.10
2018-12-15T23:49:38.596Z,-5.20
2018-12-15T23:55:05.581Z,-5.40
2018-12-15T23:57:40.029Z,-5.40
